AEA457 LEMH-EDDK
Flight info
| Callsign | AEA457 |
|---|---|
| Flight time | N/A |
| Altitude | 36000 |
| Route | ISTER UN851 LUNOR DCT NIVDA DCT OMEDA DCT RAPUR DCT TORTU DCT ERTEV DCT PEPAG DCT ABESI DCT LADOL T163 KOVAN/N0446F340 T844 UMDAS/N0382F240 T844 ASKIK T840 GULKO GULKO1K |
| Aircraft | B738/M-SDE2E3FGHIRWXY/LB1 |
Departure
| Time | 2026-04-20 18:21 |
|---|---|
| Airport | Menorca Airport (LEMH) |
Arrival
| Time | N/A |
|---|---|
| Airport | Cologne Bonn Airport (EDDK) |
| Time | Latitude | Longitude | Altitude | Speed | Heading |
|---|---|---|---|---|---|
| 2026-04-20 16:38 | 39.86675 | 4.22291 | 293 ft | 0 kts | 38° |
| 2026-04-20 18:13 | 39.86691 | 4.22307 | 293 ft | 5 kts | 38° |
| 2026-04-20 18:13 | 39.86720 | 4.22337 | 293 ft | 6 kts | 38° |
| 2026-04-20 18:13 | 39.86767 | 4.22370 | 291 ft | 9 kts | 27° |
| 2026-04-20 18:13 | 39.86835 | 4.22394 | 293 ft | 11 kts | 9° |
| 2026-04-20 18:14 | 39.86906 | 4.22381 | 296 ft | 11 kts | 314° |
| 2026-04-20 18:14 | 39.86924 | 4.22289 | 297 ft | 10 kts | 283° |
| 2026-04-20 18:14 | 39.86980 | 4.22252 | 300 ft | 10 kts | 7° |
| 2026-04-20 18:14 | 39.87048 | 4.22265 | 302 ft | 10 kts | 9° |
| 2026-04-20 18:15 | 39.87123 | 4.22280 | 304 ft | 11 kts | 9° |
| 2026-04-20 18:15 | 39.87206 | 4.22297 | 309 ft | 13 kts | 9° |
| 2026-04-20 18:15 | 39.87299 | 4.22316 | 309 ft | 15 kts | 9° |
| 2026-04-20 18:15 | 39.87387 | 4.22277 | 312 ft | 14 kts | 295° |
| 2026-04-20 18:16 | 39.87396 | 4.22224 | 311 ft | 0 kts | 275° |
| 2026-04-20 18:20 | 39.87384 | 4.22147 | 310 ft | 15 kts | 247° |
| 2026-04-20 18:21 | 39.87256 | 4.22072 | 307 ft | 37 kts | 188° |
| 2026-04-20 18:21 | 39.86677 | 4.21957 | 302 ft | 128 kts | 189° |
| 2026-04-20 18:21 | 39.85559 | 4.21723 | 525 ft | 185 kts | 189° |
| 2026-04-20 18:21 | 39.84359 | 4.21481 | 1972 ft | 158 kts | 189° |
| 2026-04-20 18:22 | 39.83358 | 4.21264 | 3368 ft | 138 kts | 191° |
| 2026-04-20 18:22 | 39.82339 | 4.21039 | 3728 ft | 166 kts | 190° |
| 2026-04-20 18:22 | 39.81103 | 4.20758 | 3946 ft | 196 kts | 191° |
| 2026-04-20 18:22 | 39.79660 | 4.20448 | 4147 ft | 221 kts | 191° |
| 2026-04-20 18:23 | 39.78179 | 4.20137 | 4345 ft | 239 kts | 189° |
| 2026-04-20 18:23 | 39.76917 | 4.20120 | 4487 ft | 257 kts | 167° |
| 2026-04-20 18:23 | 39.75359 | 4.21360 | 4878 ft | 273 kts | 130° |
| 2026-04-20 18:24 | 39.74565 | 4.23595 | 4977 ft | 277 kts | 96° |
| 2026-04-20 18:24 | 39.74736 | 4.26054 | 4988 ft | 277 kts | 70° |
| 2026-04-20 18:24 | 39.75653 | 4.28247 | 5008 ft | 277 kts | 53° |
| 2026-04-20 18:24 | 39.75834 | 4.28569 | 5010 ft | 278 kts | 52° |
| 2026-04-20 18:25 | 39.76173 | 4.29173 | 4999 ft | 279 kts | 54° |
| 2026-04-20 18:25 | 39.77317 | 4.31213 | 5020 ft | 278 kts | 49° |
| 2026-04-20 18:26 | 39.78687 | 4.33024 | 5341 ft | 280 kts | 40° |
| 2026-04-20 18:26 | 39.80248 | 4.34530 | 6166 ft | 279 kts | 30° |
| 2026-04-20 18:26 | 39.81956 | 4.35666 | 6983 ft | 279 kts | 20° |
| 2026-04-20 18:26 | 39.83805 | 4.36425 | 7754 ft | 279 kts | 10° |
| 2026-04-20 18:27 | 39.85744 | 4.36782 | 8525 ft | 280 kts | 1° |
| 2026-04-20 18:27 | 39.87705 | 4.36725 | 9289 ft | 282 kts | 352° |
| 2026-04-20 18:27 | 39.89584 | 4.36438 | 9998 ft | 285 kts | 358° |